< Typhoon 196825 1968 Season Typhoon 196827 >
Typhoon 196826 (NINA)
General InformationTrack Information on Google Maps || Disaster Info.ResourceGoogle EarthGE AnimationAtom FeedGeoJSON
Detalied Best Track (Time Zone = UTC)
Year Month Day Hour Lat. Long. Pressure (hPa) Wind (kt) Class Image Chart
1968 11 15 06 6.0 168.0 1006 0 2 -- Chart
1968 11 15 12 7.0 167.0 1008 0 2 -- Chart
1968 11 15 18 8.3 166.3 1006 0 2 -- Chart
1968 11 16 00 9.1 165.0 1008 0 2 -- Chart
1968 11 16 06 9.4 163.1 1006 0 2 -- Chart
1968 11 16 12 9.7 161.1 1008 0 2 -- Chart
1968 11 16 18 9.9 159.0 1008 0 2 -- Chart
1968 11 17 00 10.0 157.0 1008 0 2 -- Chart
1968 11 17 06 10.3 155.3 1008 0 2 -- Chart
1968 11 17 12 10.7 153.6 1008 0 2 -- Chart
1968 11 17 18 10.9 151.8 1004 0 2 -- Chart
1968 11 18 00 11.1 150.0 1006 0 2 -- Chart
1968 11 18 06 11.3 148.5 1004 0 2 -- Chart
1968 11 18 12 11.3 147.2 1006 0 2 -- Chart
1968 11 18 18 11.5 145.9 1004 0 2 -- Chart
1968 11 19 00 11.6 144.5 1004 0 2 -- Chart
1968 11 19 06 12.6 143.4 998 0 2 -- Chart
1968 11 19 12 13.7 142.4 998 0 2 -- Chart
1968 11 19 18 13.3 141.5 1000 0 2 -- Chart
1968 11 20 00 13.1 140.4 998 0 2 -- Chart
1968 11 20 06 13.4 139.5 994 0 9 -- Chart
1968 11 20 12 13.0 138.1 992 0 9 -- Chart
1968 11 20 18 13.1 137.0 992 0 9 -- Chart
1968 11 21 00 13.0 135.7 990 0 9 -- Chart
1968 11 21 06 13.0 134.2 980 0 9 -- Chart
1968 11 21 12 12.9 133.0 980 0 9 -- Chart
1968 11 21 18 12.7 131.9 975 0 9 -- Chart
1968 11 22 00 13.0 130.6 970 0 9 -- Chart
1968 11 22 06 13.1 129.8 970 0 9 -- Chart
1968 11 22 12 13.1 129.0 970 0 9 -- Chart
1968 11 22 18 12.8 128.0 970 0 9 -- Chart
1968 11 23 00 12.2 127.2 975 0 9 -- Chart
1968 11 23 06 12.0 126.5 975 0 9 -- Chart
1968 11 23 12 11.5 125.6 975 0 9 -- Chart
1968 11 23 18 11.3 124.8 980 0 9 -- Chart
1968 11 24 00 11.0 124.0 980 0 9 -- Chart
1968 11 24 06 10.5 123.0 985 0 9 -- Chart
1968 11 24 12 10.3 122.0 985 0 9 -- Chart
1968 11 24 18 9.9 121.0 980 0 9 -- Chart
1968 11 25 00 9.7 120.0 975 0 9 -- Chart
1968 11 25 06 9.4 118.8 975 0 9 -- Chart
1968 11 25 12 9.1 117.6 985 0 9 -- Chart
1968 11 25 18 9.0 116.4 980 0 9 -- Chart
1968 11 26 00 8.9 115.1 970 0 9 -- Chart
1968 11 26 06 9.2 113.7 965 0 9 -- Chart
1968 11 26 12 9.3 112.0 960 0 9 -- Chart
1968 11 26 18 9.5 111.1 970 0 9 -- Chart
1968 11 27 00 9.7 110.6 980 0 9 -- Chart
1968 11 27 06 9.5 110.0 990 0 9 -- Chart
1968 11 27 12 9.5 109.6 998 0 9 -- Chart
1968 11 27 18 9.2 109.3 998 0 2 -- Chart
1968 11 28 00 9.0 108.5 1002 0 2 -- Chart
1968 11 28 06 8.5 107.0 1004 0 2 -- Chart
1968 11 28 12 8.0 105.5 1004 0 2 -- Chart
1968 11 28 18 8.0 104.0 1004 0 2 -- Chart
1968 11 29 00 8.0 102.5 1006 0 2 -- Chart
Japan Meteorological Agency Best Track Data | Correction Date : 1989-06-01
< Typhoon 196825 1968 Season Typhoon 196827 >

Help